LKKV 200100Z 28005KT CAVOK 14/11 Q1023 LKKV 200000Z 30003KT 250V330 CAVOK 15/12 Q1023 LKKV 192300Z 20005KT 180V240 9999 FEW049CB 16/12 Q1022 LKKV 192200Z 26005KT 200V300 9999 -SHRA SCT049CB 17/12 Q1023 LKKV 192100Z 31011G21KT 260V350 9999 -SHRA SCT019 BKN050CB 18/12 Q1023 LKKV 192000Z VRB01KT CAVOK 18/10 Q1021 LKKV 191900Z 17001KT CAVOK 20/11 Q1021 LKKV 191830Z 00000KT CAVOK 22/10 Q1021 LKKV 191800Z VRB02KT CAVOK 23/11 Q1021 LKKV 191730Z 20005KT CAVOK 23/10 Q1021 LKKV 191700Z 18003KT CAVOK 23/10 Q1021 LKKV 191630Z 18003KT 140V220 CAVOK 24/10 Q1021 LKKV 191600Z 18005KT 140V200 CAVOK 25/09 Q1021 LKKV 191530Z 18005KT 130V210 CAVOK 24/10 Q1021 LKKV 191500Z 17004KT CAVOK 25/09 Q1021 LKKV 191430Z 18005KT 130V210 CAVOK 25/08 Q1022 LKKV 191400Z 15005KT 120V200 CAVOK 25/07 Q1022 LKKV 191330Z 18006KT 140V220 CAVOK 25/06 Q1022 LKKV 191300Z 16006KT 110V220 CAVOK 24/06 Q1022 LKKV 191230Z 17007KT 130V200 CAVOK 24/06 Q1023 LKKV 191200Z 20006KT 150V250 CAVOK 24/04 Q1023 LKKV 191130Z 15006KT 120V200 CAVOK 23/04 Q1023 LKKV 191100Z 15005KT 100V200 CAVOK 22/03 Q1024 LKKV 191030Z 16005KT 110V190 CAVOK 22/02 Q1024 LKKV 191000Z 17005KT 130V200 CAVOK 21/02 Q1024 LKKV 190930Z 17004KT 130V210 CAVOK 20/03 Q1024 LKKV 190900Z 12007KT 080V180 CAVOK 19/03 Q1024 LKKV 190830Z 12009KT CAVOK 19/03 Q1024 LKKV 190800Z 12009KT 090V150 CAVOK 18/M00 Q1025 LKKV 190730Z 10009KT CAVOK 17/00 Q1025 LKKV 190700Z 11008KT CAVOK 16/01 Q1025 LKKV 190630Z 12007KT CAVOK 15/01 Q1025 LKKV 190600Z 11005KT CAVOK 14/02 Q1025 LKKV 190500Z 12006KT CAVOK 12/04 Q1025 LKKV 190400Z 13006KT CAVOK 10/03 Q1025 LKKV 190300Z 13004KT CAVOK 09/04 Q1025 LKKV 190200Z 11003KT CAVOK 09/05 Q1025 LKKV 190100Z 12003KT CAVOK 10/05 Q1025 LKKV 190000Z 15004KT 130V190 CAVOK 11/06 Q1025 LKKV 182300Z 14004KT CAVOK 11/06 Q1025 LKKV 182200Z 14006KT CAVOK 12/07 Q1026 LKKV 182100Z 13006KT CAVOK 11/07 Q1026 LKKV 182000Z 13006KT CAVOK 14/08 Q1026 LKKV 181900Z 16002KT CAVOK 15/08 Q1025 LKKV 181830Z 15004KT CAVOK 18/08 Q1025 LKKV 181800Z 14005KT CAVOK 19/08 Q1025 LKKV 181730Z 15005KT 110V190 CAVOK 20/08 Q1025 LKKV 181700Z 15004KT 130V190 CAVOK 21/08 Q1025 LKKV 181630Z 15006KT 120V190 CAVOK 20/07 Q1025 LKKV 181600Z 15005KT 090V200 CAVOK 21/08 Q1025 LKKV 181530Z 14004KT 050V190 CAVOK 22/08 Q1025 LKKV 181500Z 18004KT 130V240 CAVOK 22/08 Q1025 LKKV 181430Z 15006KT 080V200 CAVOK 22/08 Q1026 LKKV 181400Z 11008KT 080V140 CAVOK 21/08 Q1026

METAR Messwerte "KARLOVY VARY" LKKV

Zurück zur Übersicht

Ortsname
Ländercode / m ü. NN
Zeit Temperatur Taupunkt Rel.
Luftfeuchte
Luftdruck:
Altimeter
NN
Station
Wind in Beaufort
(Knoten)
Sichtweite
(Meter)
Wolken
(Meter über Grund)
Wettererscheinung
KARLOVY VARY
CZ 600
Fr 20.05. 03:00141182 %1023
1023
952
W 2 (5)>= 10000Nicht signifikant 
KARLOVY VARY
CZ 600
Fr 20.05. 02:00151282 %1023
1023
952
WNW 2 (3)
WSW - NNW
>= 10000Nicht signifikant 
KARLOVY VARY
CZ 600
Fr 20.05. 01:00161277 %1022
1022
951
SSW 2 (5)
S - WSW
>= 10000Leicht bewölkt Cb (1500) 
KARLOVY VARY
CZ 600
Fr 20.05. 00:00171272 %1023
1023
952
W 2 (5)
SSW - WNW
>= 10000Wolkig Cb (1500)Regen-Schauer (schwach)
KARLOVY VARY
CZ 600
Do 19.05. 23:00181268 %1023
1022
952
NW 4 (11) - 6 (21)
W - N
>= 10000Stark bewölkt Cb (1500)
Wolkig (580)
Regen-Schauer (schwach)
KARLOVY VARY
CZ 600
Do 19.05. 22:00181059 %1021
1020
951
Uml 1 (1)>= 10000Nicht signifikant 
KARLOVY VARY
CZ 600
Do 19.05. 21:00201156 %1021
1020
951
S 1 (1)>= 10000Nicht signifikant 
KARLOVY VARY
CZ 600
Do 19.05. 20:30221046 %1021
1019
951
Windstill>= 10000Nicht signifikant 
KARLOVY VARY
CZ 600
Do 19.05. 20:00231147 %1021
1019
951
Uml 1 (2)>= 10000Nicht signifikant 
KARLOVY VARY
CZ 600
Do 19.05. 19:30231044 %1021
1019
951
SSW 2 (5)>= 10000Nicht signifikant 
KARLOVY VARY
CZ 600
Do 19.05. 19:00231044 %1021
1019
951
S 2 (3)>= 10000Nicht signifikant 
KARLOVY VARY
CZ 600
Do 19.05. 18:30241041 %1021
1019
951
S 2 (3)
SO - SW
>= 10000Nicht signifikant 
KARLOVY VARY
CZ 600
Do 19.05. 18:0025936 %1021
1019
951
S 2 (5)
SO - SSW
>= 10000Nicht signifikant 
KARLOVY VARY
CZ 600
Do 19.05. 17:30241041 %1021
1019
951
S 2 (5)
SO - SSW
>= 10000Nicht signifikant 
KARLOVY VARY
CZ 600
Do 19.05. 17:0025936 %1021
1019
951
S 2 (4)>= 10000Nicht signifikant 
KARLOVY VARY
CZ 600
Do 19.05. 16:3025834 %1022
1020
951
S 2 (5)
SO - SSW
>= 10000Nicht signifikant 
KARLOVY VARY
CZ 600
Do 19.05. 16:0025732 %1022
1020
951
SSO 2 (5)
OSO - SSW
>= 10000Nicht signifikant 
KARLOVY VARY
CZ 600
Do 19.05. 15:3025630 %1022
1020
951
S 2 (6)
SO - SW
>= 10000Nicht signifikant 
KARLOVY VARY
CZ 600
Do 19.05. 15:0024631 %1022
1020
951
SSO 2 (6)
OSO - SW
>= 10000Nicht signifikant 
KARLOVY VARY
CZ 600
Do 19.05. 14:3024631 %1023
1021
952
S 3 (7)
SO - SSW
>= 10000Nicht signifikant 
KARLOVY VARY
CZ 600
Do 19.05. 14:0024427 %1023
1021
952
SSW 2 (6)
SSO - WSW
>= 10000Nicht signifikant 
KARLOVY VARY
CZ 600
Do 19.05. 13:3023429 %1023
1021
952
SSO 2 (6)
OSO - SSW
>= 10000Nicht signifikant 
KARLOVY VARY
CZ 600
Do 19.05. 13:0022329 %1024
1022
953
SSO 2 (5)
O - SSW
>= 10000Nicht signifikant 
KARLOVY VARY
CZ 600
Do 19.05. 12:3022227 %1024
1022
953
SSO 2 (5)
OSO - S
>= 10000Nicht signifikant 
KARLOVY VARY
CZ 600
Do 19.05. 12:0021228 %1024
1023
953
S 2 (5)
SO - SSW
>= 10000Nicht signifikant 
KARLOVY VARY
CZ 600
Do 19.05. 11:3020332 %1024
1023
953
S 2 (4)
SO - SSW
>= 10000Nicht signifikant 
KARLOVY VARY
CZ 600
Do 19.05. 11:0019334 %1024
1023
953
OSO 3 (7)
O - S
>= 10000Nicht signifikant 
KARLOVY VARY
CZ 600
Do 19.05. 10:3019334 %1024
1023
953
OSO 3 (9)>= 10000Nicht signifikant 
KARLOVY VARY
CZ 600
Do 19.05. 10:0018-030 %1025
1024
954
OSO 3 (9)
O - SSO
>= 10000Nicht signifikant 
KARLOVY VARY
CZ 600
Do 19.05. 09:3017032 %1025
1025
954
O 3 (9)>= 10000Nicht signifikant 
KARLOVY VARY
CZ 600
Do 19.05. 09:0016136 %1025
1025
954
OSO 3 (8)>= 10000Nicht signifikant 
KARLOVY VARY
CZ 600
Do 19.05. 08:3015139 %1025
1025
954
OSO 3 (7)>= 10000Nicht signifikant 
KARLOVY VARY
CZ 600
Do 19.05. 08:0014244 %1025
1025
954
OSO 2 (5)>= 10000Nicht signifikant 
KARLOVY VARY
CZ 600
Do 19.05. 07:0012458 %1025
1026
954
OSO 2 (6)>= 10000Nicht signifikant 
KARLOVY VARY
CZ 600
Do 19.05. 06:0010362 %1025
1026
954
SO 2 (6)>= 10000Nicht signifikant 
KARLOVY VARY
CZ 600
Do 19.05. 05:009471 %1025
1027
954
SO 2 (4)>= 10000Nicht signifikant 
KARLOVY VARY
CZ 600
Do 19.05. 04:009576 %1025
1027
954
OSO 2 (3)>= 10000Nicht signifikant 
KARLOVY VARY
CZ 600
Do 19.05. 03:0010571 %1025
1026
954
OSO 2 (3)>= 10000Nicht signifikant 
KARLOVY VARY
CZ 600
Do 19.05. 02:0011671 %1025
1026
954
SSO 2 (4)
SO - S
>= 10000Nicht signifikant 
KARLOVY VARY
CZ 600
Do 19.05. 01:0011671 %1025
1026
954
SO 2 (4)>= 10000Nicht signifikant 
KARLOVY VARY
CZ 600
Do 19.05. 00:0012771 %1026
1027
955
SO 2 (6)>= 10000Nicht signifikant 
KARLOVY VARY
CZ 600
Mi 18.05. 23:0011776 %1026
1027
955
SO 2 (6)>= 10000Nicht signifikant 
KARLOVY VARY
CZ 600
Mi 18.05. 22:0014867 %1026
1026
955
SO 2 (6)>= 10000Nicht signifikant 
KARLOVY VARY
CZ 600
Mi 18.05. 21:0015863 %1025
1025
954
SSO 1 (2)>= 10000Nicht signifikant 
KARLOVY VARY
CZ 600
Mi 18.05. 20:3018852 %1025
1024
954
SSO 2 (4)>= 10000Nicht signifikant 
KARLOVY VARY
CZ 600
Mi 18.05. 20:0019849 %1025
1024
954
SO 2 (5)>= 10000Nicht signifikant 
KARLOVY VARY
CZ 600
Mi 18.05. 19:3020846 %1025
1024
954
SSO 2 (5)
OSO - S
>= 10000Nicht signifikant 
KARLOVY VARY
CZ 600
Mi 18.05. 19:0021843 %1025
1024
954
SSO 2 (4)
SO - S
>= 10000Nicht signifikant 
KARLOVY VARY
CZ 600
Mi 18.05. 18:3020743 %1025
1024
954
SSO 2 (6)
OSO - S
>= 10000Nicht signifikant 
KARLOVY VARY
CZ 600
Mi 18.05. 18:0021843 %1025
1024
954
SSO 2 (5)
O - SSW
>= 10000Nicht signifikant 
KARLOVY VARY
CZ 600
Mi 18.05. 17:3022841 %1025
1023
954
SO 2 (4)
NO - S
>= 10000Nicht signifikant 
KARLOVY VARY
CZ 600
Mi 18.05. 17:0022841 %1025
1023
954
S 2 (4)
SO - WSW
>= 10000Nicht signifikant 
KARLOVY VARY
CZ 600
Mi 18.05. 16:3022841 %1026
1024
955
SSO 2 (6)
O - SSW
>= 10000Nicht signifikant 
KARLOVY VARY
CZ 600
Mi 18.05. 16:0021843 %1026
1025
955
OSO 3 (8)
O - SO
>= 10000Nicht signifikant 

Altimeter: Einstellung am Altimeter (Höhenmesser), die Höhe 0 muss auf diesen Luftdruckwert zeigen, damit das Gerät die Stationshöhe richtig anzeigt.

NN: Luftdruck reduziert auf "Normal Null", auf Meereshöhe, dieser von der Temperatur abhängige Wert wird bisweilen unkorrekt einfach als "Luftdruck" bezeichnet. Eigentlich nur eine fiktive Größe, die es erlaubt, Stationen auf unterschiedlichen Höhen miteinander zu vergleichen.

Station: Realer Luftdruck an der Station.